Gilberton, Washington
Current Conditions -  °F | °C
As of 1:15 AM on Sunday 21 Dec 2014 (Local Time) from KPWT Reporting Station
Clear Clear  
Wind Chill: 50°   Ceiling: Unl
Heat Index: 50°   Visibility: 10mi
Dew Point: 48°   Wind: 12mph
Humidity: 94%   Direction: 190°S
Pressure: 29.63"   Gusts: NA
Location:  47.5964°N, 122.62°W
Report Text: KPWT 210915Z AUTO 19010KT 10SM CLR 10/09 A2963 RMK AO1
Loading
Personal Weather Stations






























Interactive Weather Map New forecast layout! Learn more

10-Day Weather Forecast

Advertisements
Track Severe Weather on mobile